GMTT/TNG METAR and TAF weather

Enter ICAO airport designator
Station Type Date Time Source
GMTT METAR 2019/02/21 16:30 UTC NOAA

GMTT 211630Z 10019KT CAVOK 17/09 Q1025 NOSIG


Station Type Date Time Source
GMTT Decoded METAR 2019/02/21 16:30 UTC NOAA

Tanger Aerodrome , Morocco (GMTT) 35-44N 005-54W 21M
Feb 21, 2019 - 11:30 AM EST / 2019.02.21 1630 UTC
Wind: from the E (100 degrees) at 22 MPH (19 KT):0
Visibility: greater than 7 mile(s):0
Temperature: 62 F (17 C)
Dew Point: 48 F (9 C)
Relative Humidity: 59%
Pressure (altimeter): 30.27 in. Hg (1025 hPa)
ob: GMTT 211630Z 10019KT CAVOK 17/09 Q1025 NOSIG
cycle: 16

Station Type Date Time Source
GMTT TAF 2019/02/21 12:21 UTC NOAA

TAF TAF GMTT 211100Z 2112/2218 09022KT 9999 FEW016
TEMPO 2112/2120 09022G34KT


Example: see airport list